sensor_id;sensor_type;location;lat;lon;timestamp;P1;durP1;ratioP1;P2;durP2;ratioP2
22851;SDS011;11592;45.460;9.240;2022-11-15T00:00:54;32.25;;;17.83;;
22851;SDS011;11592;45.460;9.240;2022-11-15T00:03:22;35.70;;;19.15;;
22851;SDS011;11592;45.460;9.240;2022-11-15T00:05:51;30.90;;;18.27;;
22851;SDS011;11592;45.460;9.240;2022-11-15T00:08:18;31.60;;;17.02;;
22851;SDS011;11592;45.460;9.240;2022-11-15T00:10:55;29.00;;;17.20;;
22851;SDS011;11592;45.460;9.240;2022-11-15T00:13:25;31.65;;;17.48;;
22851;SDS011;11592;45.460;9.240;2022-11-15T00:15:53;35.20;;;18.30;;
22851;SDS011;11592;45.460;9.240;2022-11-15T00:18:24;33.13;;;17.92;;
22851;SDS011;11592;45.460;9.240;2022-11-15T00:20:50;29.27;;;17.73;;
22851;SDS011;11592;45.460;9.240;2022-11-15T00:23:17;31.83;;;17.58;;
22851;SDS011;11592;45.460;9.240;2022-11-15T00:25:44;33.72;;;18.83;;
22851;SDS011;11592;45.460;9.240;2022-11-15T00:28:11;29.88;;;17.75;;
22851;SDS011;11592;45.460;9.240;2022-11-15T00:30:37;33.03;;;18.17;;
22851;SDS011;11592;45.460;9.240;2022-11-15T00:33:05;30.75;;;17.35;;
22851;SDS011;11592;45.460;9.240;2022-11-15T00:35:32;33.78;;;17.42;;
22851;SDS011;11592;45.460;9.240;2022-11-15T00:38:00;30.40;;;16.90;;
22851;SDS011;11592;45.460;9.240;2022-11-15T00:40:27;34.35;;;17.33;;
22851;SDS011;11592;45.460;9.240;2022-11-15T00:42:54;30.52;;;17.77;;
22851;SDS011;11592;45.460;9.240;2022-11-15T00:45:21;28.95;;;18.02;;
22851;SDS011;11592;45.460;9.240;2022-11-15T00:47:48;31.25;;;17.95;;
22851;SDS011;11592;45.460;9.240;2022-11-15T00:50:15;31.63;;;19.25;;
22851;SDS011;11592;45.460;9.240;2022-11-15T00:52:42;35.92;;;18.38;;
22851;SDS011;11592;45.460;9.240;2022-11-15T00:55:13;31.95;;;18.60;;
22851;SDS011;11592;45.460;9.240;2022-11-15T00:57:42;32.50;;;17.98;;
22851;SDS011;11592;45.460;9.240;2022-11-15T01:00:09;28.38;;;16.58;;
22851;SDS011;11592;45.460;9.240;2022-11-15T01:02:36;30.80;;;17.70;;
22851;SDS011;11592;45.460;9.240;2022-11-15T01:05:03;29.80;;;17.55;;
22851;SDS011;11592;45.460;9.240;2022-11-15T01:07:30;29.98;;;17.05;;
22851;SDS011;11592;45.460;9.240;2022-11-15T01:09:57;35.05;;;18.63;;
22851;SDS011;11592;45.460;9.240;2022-11-15T01:12:23;33.05;;;16.85;;
22851;SDS011;11592;45.460;9.240;2022-11-15T01:14:50;30.25;;;16.67;;
22851;SDS011;11592;45.460;9.240;2022-11-15T01:17:17;27.63;;;16.98;;
22851;SDS011;11592;45.460;9.240;2022-11-15T01:19:44;25.65;;;16.05;;
22851;SDS011;11592;45.460;9.240;2022-11-15T01:22:10;25.85;;;15.57;;
22851;SDS011;11592;45.460;9.240;2022-11-15T01:24:37;27.58;;;15.77;;
22851;SDS011;11592;45.460;9.240;2022-11-15T01:27:04;27.98;;;15.80;;
22851;SDS011;11592;45.460;9.240;2022-11-15T01:29:30;27.98;;;16.75;;
22851;SDS011;11592;45.460;9.240;2022-11-15T01:31:57;26.75;;;15.68;;
22851;SDS011;11592;45.460;9.240;2022-11-15T01:34:24;27.58;;;16.75;;
22851;SDS011;11592;45.460;9.240;2022-11-15T01:36:51;30.17;;;16.52;;
22851;SDS011;11592;45.460;9.240;2022-11-15T01:39:17;31.38;;;17.20;;
22851;SDS011;11592;45.460;9.240;2022-11-15T01:41:44;27.73;;;16.70;;
22851;SDS011;11592;45.460;9.240;2022-11-15T01:46:57;27.48;;;15.52;;
22851;SDS011;11592;45.460;9.240;2022-11-15T01:49:25;30.00;;;15.65;;
22851;SDS011;11592;45.460;9.240;2022-11-15T01:51:56;28.45;;;16.67;;
22851;SDS011;11592;45.460;9.240;2022-11-15T01:54:23;27.60;;;15.25;;
22851;SDS011;11592;45.460;9.240;2022-11-15T01:56:52;24.83;;;15.18;;
22851;SDS011;11592;45.460;9.240;2022-11-15T01:59:22;24.33;;;14.20;;
22851;SDS011;11592;45.460;9.240;2022-11-15T02:01:49;30.55;;;15.75;;
22851;SDS011;11592;45.460;9.240;2022-11-15T02:04:18;28.17;;;15.85;;
22851;SDS011;11592;45.460;9.240;2022-11-15T02:06:58;27.73;;;15.32;;
22851;SDS011;11592;45.460;9.240;2022-11-15T02:09:27;25.25;;;14.77;;
22851;SDS011;11592;45.460;9.240;2022-11-15T02:11:54;25.95;;;15.60;;
22851;SDS011;11592;45.460;9.240;2022-11-15T02:14:22;24.50;;;14.60;;
22851;SDS011;11592;45.460;9.240;2022-11-15T02:22:42;26.17;;;15.25;;
22851;SDS011;11592;45.460;9.240;2022-11-15T02:28:06;29.52;;;15.65;;
22851;SDS011;11592;45.460;9.240;2022-11-15T02:36:29;26.75;;;15.13;;
22851;SDS011;11592;45.460;9.240;2022-11-15T02:39:07;26.92;;;15.98;;
22851;SDS011;11592;45.460;9.240;2022-11-15T02:41:51;30.42;;;15.57;;
22851;SDS011;11592;45.460;9.240;2022-11-15T02:44:53;28.75;;;15.00;;
22851;SDS011;11592;45.460;9.240;2022-11-15T02:47:22;25.35;;;14.85;;
22851;SDS011;11592;45.460;9.240;2022-11-15T02:49:54;23.73;;;13.90;;
22851;SDS011;11592;45.460;9.240;2022-11-15T02:52:23;26.05;;;14.48;;
22851;SDS011;11592;45.460;9.240;2022-11-15T02:54:54;27.08;;;15.88;;
22851;SDS011;11592;45.460;9.240;2022-11-15T03:00:11;25.13;;;14.85;;
22851;SDS011;11592;45.460;9.240;2022-11-15T03:07:51;26.40;;;14.70;;
22851;SDS011;11592;45.460;9.240;2022-11-15T03:16:12;28.63;;;15.88;;
22851;SDS011;11592;45.460;9.240;2022-11-15T03:18:52;26.20;;;13.90;;
22851;SDS011;11592;45.460;9.240;2022-11-15T03:21:30;23.95;;;14.48;;
22851;SDS011;11592;45.460;9.240;2022-11-15T03:24:00;23.30;;;14.13;;
22851;SDS011;11592;45.460;9.240;2022-11-15T03:26:31;24.35;;;14.38;;
22851;SDS011;11592;45.460;9.240;2022-11-15T03:29:01;24.30;;;13.60;;
22851;SDS011;11592;45.460;9.240;2022-11-15T03:31:33;23.17;;;13.65;;
22851;SDS011;11592;45.460;9.240;2022-11-15T03:34:25;23.15;;;14.60;;
22851;SDS011;11592;45.460;9.240;2022-11-15T03:36:55;25.38;;;14.27;;
22851;SDS011;11592;45.460;9.240;2022-11-15T03:39:22;23.13;;;14.48;;
22851;SDS011;11592;45.460;9.240;2022-11-15T03:41:54;23.77;;;14.27;;
22851;SDS011;11592;45.460;9.240;2022-11-15T03:44:35;24.52;;;13.70;;
22851;SDS011;11592;45.460;9.240;2022-11-15T03:47:24;23.25;;;14.25;;
22851;SDS011;11592;45.460;9.240;2022-11-15T03:50:11;20.77;;;12.68;;
22851;SDS011;11592;45.460;9.240;2022-11-15T03:52:44;21.02;;;13.27;;
22851;SDS011;11592;45.460;9.240;2022-11-15T03:55:15;23.35;;;14.25;;
22851;SDS011;11592;45.460;9.240;2022-11-15T03:57:44;20.60;;;13.10;;
22851;SDS011;11592;45.460;9.240;2022-11-15T04:00:14;21.05;;;13.32;;
22851;SDS011;11592;45.460;9.240;2022-11-15T04:02:41;24.08;;;13.93;;
22851;SDS011;11592;45.460;9.240;2022-11-15T04:05:08;21.70;;;14.13;;
22851;SDS011;11592;45.460;9.240;2022-11-15T04:07:35;23.83;;;13.45;;
22851;SDS011;11592;45.460;9.240;2022-11-15T04:10:02;20.30;;;13.30;;
22851;SDS011;11592;45.460;9.240;2022-11-15T04:12:30;25.67;;;13.80;;
22851;SDS011;11592;45.460;9.240;2022-11-15T04:15:09;21.48;;;13.25;;
22851;SDS011;11592;45.460;9.240;2022-11-15T04:17:38;25.98;;;14.45;;
22851;SDS011;11592;45.460;9.240;2022-11-15T04:20:11;25.10;;;14.70;;
22851;SDS011;11592;45.460;9.240;2022-11-15T04:23:02;26.13;;;14.50;;
22851;SDS011;11592;45.460;9.240;2022-11-15T04:25:54;24.17;;;13.85;;
22851;SDS011;11592;45.460;9.240;2022-11-15T04:28:22;25.45;;;14.40;;
22851;SDS011;11592;45.460;9.240;2022-11-15T04:30:48;21.23;;;13.45;;
22851;SDS011;11592;45.460;9.240;2022-11-15T04:33:15;22.90;;;13.80;;
22851;SDS011;11592;45.460;9.240;2022-11-15T04:35:42;26.65;;;13.80;;
22851;SDS011;11592;45.460;9.240;2022-11-15T04:38:10;27.50;;;14.35;;
22851;SDS011;11592;45.460;9.240;2022-11-15T04:40:37;24.02;;;13.90;;
22851;SDS011;11592;45.460;9.240;2022-11-15T04:43:04;26.83;;;14.57;;
22851;SDS011;11592;45.460;9.240;2022-11-15T04:45:31;25.83;;;13.65;;
22851;SDS011;11592;45.460;9.240;2022-11-15T04:47:57;25.73;;;14.82;;
22851;SDS011;11592;45.460;9.240;2022-11-15T04:50:24;23.85;;;14.98;;
22851;SDS011;11592;45.460;9.240;2022-11-15T04:52:52;25.23;;;13.32;;
22851;SDS011;11592;45.460;9.240;2022-11-15T04:55:19;25.02;;;14.38;;
22851;SDS011;11592;45.460;9.240;2022-11-15T04:57:47;23.73;;;13.23;;
22851;SDS011;11592;45.460;9.240;2022-11-15T05:00:14;25.23;;;14.40;;
22851;SDS011;11592;45.460;9.240;2022-11-15T05:02:42;22.73;;;13.50;;
22851;SDS011;11592;45.460;9.240;2022-11-15T05:05:28;24.95;;;13.07;;
22851;SDS011;11592;45.460;9.240;2022-11-15T05:07:54;25.80;;;13.32;;
22851;SDS011;11592;45.460;9.240;2022-11-15T05:10:21;23.05;;;13.20;;
22851;SDS011;11592;45.460;9.240;2022-11-15T05:12:48;26.42;;;14.02;;
22851;SDS011;11592;45.460;9.240;2022-11-15T05:15:15;22.88;;;13.07;;
22851;SDS011;11592;45.460;9.240;2022-11-15T05:17:42;28.08;;;14.05;;
22851;SDS011;11592;45.460;9.240;2022-11-15T05:20:08;21.65;;;13.23;;
22851;SDS011;11592;45.460;9.240;2022-11-15T05:22:36;19.98;;;12.40;;
22851;SDS011;11592;45.460;9.240;2022-11-15T05:25:03;28.02;;;14.38;;
22851;SDS011;11592;45.460;9.240;2022-11-15T05:27:31;21.10;;;12.90;;
22851;SDS011;11592;45.460;9.240;2022-11-15T05:29:58;20.83;;;13.02;;
22851;SDS011;11592;45.460;9.240;2022-11-15T05:32:25;22.33;;;13.43;;
22851;SDS011;11592;45.460;9.240;2022-11-15T05:34:52;22.08;;;14.02;;
22851;SDS011;11592;45.460;9.240;2022-11-15T05:37:20;22.88;;;12.93;;
22851;SDS011;11592;45.460;9.240;2022-11-15T05:39:47;19.00;;;10.82;;
22851;SDS011;11592;45.460;9.240;2022-11-15T05:42:14;18.80;;;11.52;;
22851;SDS011;11592;45.460;9.240;2022-11-15T05:44:43;16.52;;;11.65;;
22851;SDS011;11592;45.460;9.240;2022-11-15T05:47:15;17.88;;;11.63;;
22851;SDS011;11592;45.460;9.240;2022-11-15T05:49:45;18.70;;;11.98;;
22851;SDS011;11592;45.460;9.240;2022-11-15T05:52:17;19.15;;;12.25;;
22851;SDS011;11592;45.460;9.240;2022-11-15T05:54:46;19.70;;;12.70;;
22851;SDS011;11592;45.460;9.240;2022-11-15T05:57:13;19.73;;;11.65;;
22851;SDS011;11592;45.460;9.240;2022-11-15T05:59:40;19.90;;;12.43;;
22851;SDS011;11592;45.460;9.240;2022-11-15T06:02:10;23.17;;;14.00;;
22851;SDS011;11592;45.460;9.240;2022-11-15T06:04:37;19.20;;;12.77;;
22851;SDS011;11592;45.460;9.240;2022-11-15T06:07:04;23.02;;;13.55;;
22851;SDS011;11592;45.460;9.240;2022-11-15T06:09:31;22.70;;;13.40;;
22851;SDS011;11592;45.460;9.240;2022-11-15T06:11:57;19.92;;;12.68;;
22851;SDS011;11592;45.460;9.240;2022-11-15T06:14:24;20.95;;;13.65;;
22851;SDS011;11592;45.460;9.240;2022-11-15T06:16:51;19.17;;;12.77;;
22851;SDS011;11592;45.460;9.240;2022-11-15T06:19:18;22.33;;;13.90;;
22851;SDS011;11592;45.460;9.240;2022-11-15T06:21:44;24.00;;;13.23;;
22851;SDS011;11592;45.460;9.240;2022-11-15T06:24:11;22.98;;;13.38;;
22851;SDS011;11592;45.460;9.240;2022-11-15T06:26:38;19.85;;;12.77;;
22851;SDS011;11592;45.460;9.240;2022-11-15T06:29:04;20.98;;;13.88;;
22851;SDS011;11592;45.460;9.240;2022-11-15T06:31:32;19.90;;;12.50;;
22851;SDS011;11592;45.460;9.240;2022-11-15T06:34:00;20.15;;;12.80;;
22851;SDS011;11592;45.460;9.240;2022-11-15T06:36:26;17.50;;;11.88;;
22851;SDS011;11592;45.460;9.240;2022-11-15T06:38:53;19.05;;;12.50;;
22851;SDS011;11592;45.460;9.240;2022-11-15T06:41:20;19.13;;;12.07;;
22851;SDS011;11592;45.460;9.240;2022-11-15T06:43:47;22.15;;;12.35;;
22851;SDS011;11592;45.460;9.240;2022-11-15T06:46:14;20.65;;;11.60;;
22851;SDS011;11592;45.460;9.240;2022-11-15T06:48:40;19.23;;;11.80;;
22851;SDS011;11592;45.460;9.240;2022-11-15T06:51:07;19.98;;;11.50;;
22851;SDS011;11592;45.460;9.240;2022-11-15T06:53:34;19.52;;;12.25;;
22851;SDS011;11592;45.460;9.240;2022-11-15T06:56:01;18.30;;;11.18;;
22851;SDS011;11592;45.460;9.240;2022-11-15T06:58:30;15.45;;;11.00;;
22851;SDS011;11592;45.460;9.240;2022-11-15T07:01:07;16.15;;;10.90;;
22851;SDS011;11592;45.460;9.240;2022-11-15T07:03:37;20.23;;;11.23;;
22851;SDS011;11592;45.460;9.240;2022-11-15T07:06:07;18.50;;;11.30;;
22851;SDS011;11592;45.460;9.240;2022-11-15T07:08:34;18.85;;;10.95;;
22851;SDS011;11592;45.460;9.240;2022-11-15T07:11:02;16.55;;;10.40;;
22851;SDS011;11592;45.460;9.240;2022-11-15T07:13:31;18.77;;;10.73;;
22851;SDS011;11592;45.460;9.240;2022-11-15T07:16:04;18.05;;;10.98;;
22851;SDS011;11592;45.460;9.240;2022-11-15T07:18:36;15.90;;;10.90;;
22851;SDS011;11592;45.460;9.240;2022-11-15T07:21:04;20.60;;;12.30;;
22851;SDS011;11592;45.460;9.240;2022-11-15T07:23:35;20.27;;;12.00;;
22851;SDS011;11592;45.460;9.240;2022-11-15T07:26:06;20.30;;;11.75;;
22851;SDS011;11592;45.460;9.240;2022-11-15T07:28:34;20.38;;;11.38;;
22851;SDS011;11592;45.460;9.240;2022-11-15T07:31:02;20.13;;;12.15;;
22851;SDS011;11592;45.460;9.240;2022-11-15T07:33:30;18.70;;;11.55;;
22851;SDS011;11592;45.460;9.240;2022-11-15T07:36:04;20.25;;;11.02;;
22851;SDS011;11592;45.460;9.240;2022-11-15T07:38:33;17.07;;;10.93;;
22851;SDS011;11592;45.460;9.240;2022-11-15T07:41:07;17.92;;;11.50;;
22851;SDS011;11592;45.460;9.240;2022-11-15T07:43:34;17.33;;;11.18;;
22851;SDS011;11592;45.460;9.240;2022-11-15T07:46:05;23.05;;;12.75;;
22851;SDS011;11592;45.460;9.240;2022-11-15T07:48:35;20.88;;;12.15;;
22851;SDS011;11592;45.460;9.240;2022-11-15T07:51:13;19.27;;;11.38;;
22851;SDS011;11592;45.460;9.240;2022-11-15T07:53:41;18.73;;;12.13;;
22851;SDS011;11592;45.460;9.240;2022-11-15T07:56:09;20.42;;;12.00;;
22851;SDS011;11592;45.460;9.240;2022-11-15T07:58:37;20.40;;;12.32;;
22851;SDS011;11592;45.460;9.240;2022-11-15T08:01:04;23.67;;;13.27;;
22851;SDS011;11592;45.460;9.240;2022-11-15T08:03:32;30.00;;;12.98;;
22851;SDS011;11592;45.460;9.240;2022-11-15T08:06:00;18.98;;;11.50;;
22851;SDS011;11592;45.460;9.240;2022-11-15T08:08:26;22.90;;;13.43;;
22851;SDS011;11592;45.460;9.240;2022-11-15T08:10:53;22.10;;;13.20;;
22851;SDS011;11592;45.460;9.240;2022-11-15T08:13:20;22.73;;;13.75;;
22851;SDS011;11592;45.460;9.240;2022-11-15T08:15:47;18.15;;;12.90;;
22851;SDS011;11592;45.460;9.240;2022-11-15T08:18:21;25.85;;;12.63;;
22851;SDS011;11592;45.460;9.240;2022-11-15T08:20:48;20.98;;;13.38;;
22851;SDS011;11592;45.460;9.240;2022-11-15T08:23:14;25.17;;;14.20;;
22851;SDS011;11592;45.460;9.240;2022-11-15T08:25:41;20.13;;;13.90;;
22851;SDS011;11592;45.460;9.240;2022-11-15T08:28:09;25.23;;;14.90;;
22851;SDS011;11592;45.460;9.240;2022-11-15T08:30:37;19.90;;;14.00;;
22851;SDS011;11592;45.460;9.240;2022-11-15T08:33:11;24.63;;;14.70;;
22851;SDS011;11592;45.460;9.240;2022-11-15T08:35:42;23.55;;;14.02;;
22851;SDS011;11592;45.460;9.240;2022-11-15T08:38:10;23.92;;;15.48;;
22851;SDS011;11592;45.460;9.240;2022-11-15T08:40:37;19.73;;;12.95;;
22851;SDS011;11592;45.460;9.240;2022-11-15T08:43:04;23.85;;;13.40;;
22851;SDS011;11592;45.460;9.240;2022-11-15T08:45:31;24.33;;;14.38;;
22851;SDS011;11592;45.460;9.240;2022-11-15T08:48:00;21.33;;;13.63;;
22851;SDS011;11592;45.460;9.240;2022-11-15T08:50:28;23.88;;;13.82;;
22851;SDS011;11592;45.460;9.240;2022-11-15T08:52:55;24.83;;;14.35;;
22851;SDS011;11592;45.460;9.240;2022-11-15T08:55:22;23.35;;;14.93;;
22851;SDS011;11592;45.460;9.240;2022-11-15T08:57:50;24.02;;;15.27;;
22851;SDS011;11592;45.460;9.240;2022-11-15T09:00:17;21.02;;;14.10;;
22851;SDS011;11592;45.460;9.240;2022-11-15T09:02:45;26.98;;;15.02;;
22851;SDS011;11592;45.460;9.240;2022-11-15T09:05:12;20.27;;;14.52;;
22851;SDS011;11592;45.460;9.240;2022-11-15T09:07:41;22.17;;;14.55;;
22851;SDS011;11592;45.460;9.240;2022-11-15T09:10:08;25.67;;;14.73;;
22851;SDS011;11592;45.460;9.240;2022-11-15T09:12:35;25.80;;;15.60;;
22851;SDS011;11592;45.460;9.240;2022-11-15T09:15:02;26.77;;;15.35;;
22851;SDS011;11592;45.460;9.240;2022-11-15T09:17:29;28.77;;;15.77;;
22851;SDS011;11592;45.460;9.240;2022-11-15T09:19:56;23.98;;;14.20;;
22851;SDS011;11592;45.460;9.240;2022-11-15T09:22:23;24.08;;;14.60;;
22851;SDS011;11592;45.460;9.240;2022-11-15T09:24:49;22.75;;;14.43;;
22851;SDS011;11592;45.460;9.240;2022-11-15T09:27:16;28.02;;;14.93;;
22851;SDS011;11592;45.460;9.240;2022-11-15T09:29:43;22.95;;;13.88;;
22851;SDS011;11592;45.460;9.240;2022-11-15T09:32:09;24.48;;;14.02;;
22851;SDS011;11592;45.460;9.240;2022-11-15T09:34:36;24.13;;;15.25;;
22851;SDS011;11592;45.460;9.240;2022-11-15T09:37:03;27.40;;;14.88;;
22851;SDS011;11592;45.460;9.240;2022-11-15T09:39:30;24.08;;;14.60;;
22851;SDS011;11592;45.460;9.240;2022-11-15T09:50:06;22.58;;;13.57;;
22851;SDS011;11592;45.460;9.240;2022-11-15T09:52:36;21.60;;;13.43;;
22851;SDS011;11592;45.460;9.240;2022-11-15T09:55:07;21.70;;;13.45;;
22851;SDS011;11592;45.460;9.240;2022-11-15T09:57:50;22.02;;;13.75;;
22851;SDS011;11592;45.460;9.240;2022-11-15T10:00:33;22.85;;;14.02;;
22851;SDS011;11592;45.460;9.240;2022-11-15T10:06:01;24.92;;;13.38;;
22851;SDS011;11592;45.460;9.240;2022-11-15T10:11:15;21.33;;;13.25;;
22851;SDS011;11592;45.460;9.240;2022-11-15T10:14:11;22.23;;;11.75;;
22851;SDS011;11592;45.460;9.240;2022-11-15T10:19:07;18.88;;;10.77;;
22851;SDS011;11592;45.460;9.240;2022-11-15T10:27:42;15.85;;;9.15;;
22851;SDS011;11592;45.460;9.240;2022-11-15T10:30:12;16.85;;;10.15;;
22851;SDS011;11592;45.460;9.240;2022-11-15T10:32:42;17.50;;;10.25;;
22851;SDS011;11592;45.460;9.240;2022-11-15T10:35:15;19.08;;;10.48;;
22851;SDS011;11592;45.460;9.240;2022-11-15T10:37:47;18.70;;;10.35;;
22851;SDS011;11592;45.460;9.240;2022-11-15T10:40:19;19.33;;;11.80;;
22851;SDS011;11592;45.460;9.240;2022-11-15T10:42:47;19.00;;;10.90;;
22851;SDS011;11592;45.460;9.240;2022-11-15T10:45:30;19.23;;;10.98;;
22851;SDS011;11592;45.460;9.240;2022-11-15T10:50:46;19.25;;;12.35;;
22851;SDS011;11592;45.460;9.240;2022-11-15T10:53:19;19.85;;;11.65;;
22851;SDS011;11592;45.460;9.240;2022-11-15T10:56:07;21.52;;;12.20;;
22851;SDS011;11592;45.460;9.240;2022-11-15T10:58:43;25.95;;;12.45;;
22851;SDS011;11592;45.460;9.240;2022-11-15T11:03:45;21.98;;;12.55;;
22851;SDS011;11592;45.460;9.240;2022-11-15T11:06:28;20.45;;;13.20;;
22851;SDS011;11592;45.460;9.240;2022-11-15T11:08:57;22.10;;;12.65;;
22851;SDS011;11592;45.460;9.240;2022-11-15T11:14:25;22.23;;;13.77;;
22851;SDS011;11592;45.460;9.240;2022-11-15T11:17:10;28.70;;;13.18;;
22851;SDS011;11592;45.460;9.240;2022-11-15T11:33:52;25.23;;;15.70;;
22851;SDS011;11592;45.460;9.240;2022-11-15T11:36:38;27.98;;;15.90;;
22851;SDS011;11592;45.460;9.240;2022-11-15T11:47:23;27.92;;;15.75;;
22851;SDS011;11592;45.460;9.240;2022-11-15T11:50:03;25.83;;;15.55;;
22851;SDS011;11592;45.460;9.240;2022-11-15T11:53:11;26.70;;;15.55;;
22851;SDS011;11592;45.460;9.240;2022-11-15T11:55:47;27.75;;;15.85;;
22851;SDS011;11592;45.460;9.240;2022-11-15T11:58:25;29.50;;;16.02;;
22851;SDS011;11592;45.460;9.240;2022-11-15T12:01:44;28.63;;;16.02;;
22851;SDS011;11592;45.460;9.240;2022-11-15T12:03:55;28.60;;;16.70;;
22851;SDS011;11592;45.460;9.240;2022-11-15T12:06:35;29.15;;;17.85;;
22851;SDS011;11592;45.460;9.240;2022-11-15T12:09:30;28.65;;;16.67;;
22851;SDS011;11592;45.460;9.240;2022-11-15T12:12:13;26.25;;;16.73;;
22851;SDS011;11592;45.460;9.240;2022-11-15T12:14:51;32.72;;;19.80;;
22851;SDS011;11592;45.460;9.240;2022-11-15T12:17:21;40.67;;;19.90;;
22851;SDS011;11592;45.460;9.240;2022-11-15T12:19:51;33.33;;;20.73;;
22851;SDS011;11592;45.460;9.240;2022-11-15T12:22:23;34.72;;;19.88;;
22851;SDS011;11592;45.460;9.240;2022-11-15T12:25:07;35.05;;;20.90;;
22851;SDS011;11592;45.460;9.240;2022-11-15T12:27:55;32.38;;;20.17;;
22851;SDS011;11592;45.460;9.240;2022-11-15T12:30:51;35.60;;;21.42;;
22851;SDS011;11592;45.460;9.240;2022-11-15T12:36:53;38.80;;;20.38;;
22851;SDS011;11592;45.460;9.240;2022-11-15T12:41:23;35.63;;;20.40;;
22851;SDS011;11592;45.460;9.240;2022-11-15T12:43:54;35.25;;;21.58;;
22851;SDS011;11592;45.460;9.240;2022-11-15T12:46:23;35.80;;;20.73;;
22851;SDS011;11592;45.460;9.240;2022-11-15T12:48:57;35.72;;;20.90;;
22851;SDS011;11592;45.460;9.240;2022-11-15T12:59:52;34.28;;;19.48;;
22851;SDS011;11592;45.460;9.240;2022-11-15T13:02:25;34.58;;;19.02;;
22851;SDS011;11592;45.460;9.240;2022-11-15T13:20:30;30.45;;;18.25;;
22851;SDS011;11592;45.460;9.240;2022-11-15T13:28:50;29.38;;;17.42;;
22851;SDS011;11592;45.460;9.240;2022-11-15T13:33:59;24.30;;;14.95;;
22851;SDS011;11592;45.460;9.240;2022-11-15T13:36:42;30.52;;;15.90;;
22851;SDS011;11592;45.460;9.240;2022-11-15T13:39:31;30.35;;;14.82;;
22851;SDS011;11592;45.460;9.240;2022-11-15T13:41:58;25.23;;;14.60;;
22851;SDS011;11592;45.460;9.240;2022-11-15T13:44:29;26.42;;;15.18;;
22851;SDS011;11592;45.460;9.240;2022-11-15T13:47:04;25.15;;;14.70;;
22851;SDS011;11592;45.460;9.240;2022-11-15T13:49:41;23.27;;;14.48;;
22851;SDS011;11592;45.460;9.240;2022-11-15T13:52:10;22.50;;;13.85;;
22851;SDS011;11592;45.460;9.240;2022-11-15T13:57:45;23.48;;;13.85;;
22851;SDS011;11592;45.460;9.240;2022-11-15T14:03:04;21.70;;;13.13;;
22851;SDS011;11592;45.460;9.240;2022-11-15T14:05:42;19.13;;;11.80;;
22851;SDS011;11592;45.460;9.240;2022-11-15T14:08:27;18.40;;;11.20;;
22851;SDS011;11592;45.460;9.240;2022-11-15T14:16:35;13.90;;;9.10;;
22851;SDS011;11592;45.460;9.240;2022-11-15T14:19:04;12.75;;;8.68;;
22851;SDS011;11592;45.460;9.240;2022-11-15T14:21:33;13.75;;;8.88;;
22851;SDS011;11592;45.460;9.240;2022-11-15T14:26:43;14.65;;;8.80;;
22851;SDS011;11592;45.460;9.240;2022-11-15T14:29:29;15.75;;;9.45;;
22851;SDS011;11592;45.460;9.240;2022-11-15T14:32:12;15.13;;;9.52;;
22851;SDS011;11592;45.460;9.240;2022-11-15T14:34:57;15.70;;;9.98;;
22851;SDS011;11592;45.460;9.240;2022-11-15T14:37:29;17.48;;;10.23;;
22851;SDS011;11592;45.460;9.240;2022-11-15T14:40:01;16.23;;;9.85;;
22851;SDS011;11592;45.460;9.240;2022-11-15T14:42:30;20.77;;;10.32;;
22851;SDS011;11592;45.460;9.240;2022-11-15T14:44:56;15.60;;;9.75;;
22851;SDS011;11592;45.460;9.240;2022-11-15T14:47:23;17.67;;;10.55;;
22851;SDS011;11592;45.460;9.240;2022-11-15T14:49:50;16.83;;;11.07;;
22851;SDS011;11592;45.460;9.240;2022-11-15T14:52:25;17.50;;;11.65;;
22851;SDS011;11592;45.460;9.240;2022-11-15T14:54:59;18.80;;;11.02;;
22851;SDS011;11592;45.460;9.240;2022-11-15T14:57:28;18.45;;;10.98;;
22851;SDS011;11592;45.460;9.240;2022-11-15T14:59:56;18.02;;;10.30;;
22851;SDS011;11592;45.460;9.240;2022-11-15T15:02:23;17.35;;;10.93;;
22851;SDS011;11592;45.460;9.240;2022-11-15T15:04:51;16.38;;;10.65;;
22851;SDS011;11592;45.460;9.240;2022-11-15T15:07:18;16.73;;;10.43;;
22851;SDS011;11592;45.460;9.240;2022-11-15T15:09:46;19.52;;;11.05;;
22851;SDS011;11592;45.460;9.240;2022-11-15T15:12:17;16.58;;;10.65;;
22851;SDS011;11592;45.460;9.240;2022-11-15T15:14:49;15.30;;;10.10;;
22851;SDS011;11592;45.460;9.240;2022-11-15T15:17:16;19.83;;;10.85;;
22851;SDS011;11592;45.460;9.240;2022-11-15T15:19:43;17.20;;;10.45;;
22851;SDS011;11592;45.460;9.240;2022-11-15T15:22:12;17.83;;;11.02;;
22851;SDS011;11592;45.460;9.240;2022-11-15T15:24:43;18.17;;;11.02;;
22851;SDS011;11592;45.460;9.240;2022-11-15T15:27:11;18.42;;;11.38;;
22851;SDS011;11592;45.460;9.240;2022-11-15T15:29:39;17.55;;;10.80;;
22851;SDS011;11592;45.460;9.240;2022-11-15T15:32:06;17.15;;;10.73;;
22851;SDS011;11592;45.460;9.240;2022-11-15T15:34:34;19.40;;;11.85;;
22851;SDS011;11592;45.460;9.240;2022-11-15T15:39:51;18.33;;;11.57;;
22851;SDS011;11592;45.460;9.240;2022-11-15T15:42:20;19.85;;;11.75;;
22851;SDS011;11592;45.460;9.240;2022-11-15T15:44:47;20.98;;;11.75;;
22851;SDS011;11592;45.460;9.240;2022-11-15T15:47:21;18.27;;;11.02;;
22851;SDS011;11592;45.460;9.240;2022-11-15T15:49:50;21.08;;;11.85;;
22851;SDS011;11592;45.460;9.240;2022-11-15T15:52:17;17.17;;;10.95;;
22851;SDS011;11592;45.460;9.240;2022-11-15T15:54:44;17.92;;;11.00;;
22851;SDS011;11592;45.460;9.240;2022-11-15T15:57:11;18.08;;;11.57;;
22851;SDS011;11592;45.460;9.240;2022-11-15T15:59:40;16.60;;;10.88;;
22851;SDS011;11592;45.460;9.240;2022-11-15T16:02:11;20.02;;;12.38;;
22851;SDS011;11592;45.460;9.240;2022-11-15T16:04:38;18.48;;;11.13;;
22851;SDS011;11592;45.460;9.240;2022-11-15T16:07:05;18.17;;;11.32;;
22851;SDS011;11592;45.460;9.240;2022-11-15T16:09:41;16.67;;;10.95;;
22851;SDS011;11592;45.460;9.240;2022-11-15T16:12:31;18.52;;;10.90;;
22851;SDS011;11592;45.460;9.240;2022-11-15T16:14:59;16.80;;;10.55;;
22851;SDS011;11592;45.460;9.240;2022-11-15T16:17:48;19.90;;;11.13;;
22851;SDS011;11592;45.460;9.240;2022-11-15T16:23:06;18.80;;;11.45;;
22851;SDS011;11592;45.460;9.240;2022-11-15T16:33:29;19.15;;;11.77;;
22851;SDS011;11592;45.460;9.240;2022-11-15T16:35:57;18.55;;;11.48;;
22851;SDS011;11592;45.460;9.240;2022-11-15T16:38:24;19.13;;;11.05;;
22851;SDS011;11592;45.460;9.240;2022-11-15T16:40:50;19.08;;;11.77;;
22851;SDS011;11592;45.460;9.240;2022-11-15T16:43:17;20.40;;;12.20;;
22851;SDS011;11592;45.460;9.240;2022-11-15T16:45:44;22.38;;;11.75;;
22851;SDS011;11592;45.460;9.240;2022-11-15T16:48:32;19.73;;;12.02;;
22851;SDS011;11592;45.460;9.240;2022-11-15T16:51:00;18.77;;;12.18;;
22851;SDS011;11592;45.460;9.240;2022-11-15T16:53:29;18.92;;;11.98;;
22851;SDS011;11592;45.460;9.240;2022-11-15T16:55:56;19.88;;;12.07;;
22851;SDS011;11592;45.460;9.240;2022-11-15T16:58:23;22.75;;;12.57;;
22851;SDS011;11592;45.460;9.240;2022-11-15T17:00:51;21.40;;;12.57;;
22851;SDS011;11592;45.460;9.240;2022-11-15T17:03:19;18.95;;;11.95;;
22851;SDS011;11592;45.460;9.240;2022-11-15T17:05:49;19.00;;;11.95;;
22851;SDS011;11592;45.460;9.240;2022-11-15T17:08:17;22.67;;;11.93;;
22851;SDS011;11592;45.460;9.240;2022-11-15T17:10:46;20.98;;;11.43;;